Time;durP1;ratioP1;P1;durP2;ratioP2;P2;SDS_P1;SDS_P2;PMS_P1;PMS_P2;Temp;Humidity;BMP_temperature;BMP_pressure;BME280_temperature;BME280_humidity;BME280_pressure;Samples;Min_cycle;Max_cycle;Signal;HPM_P1;HPM_P2
2021/09/27 00:01:39;;;;;;;;;;;16.60;92.70;;;;;;5092415;28;20313;-68
2021/09/27 00:04:06;;;;;;;;;;;16.60;90.70;;;;;;5092567;28;19916;-70
2021/09/27 00:06:32;;;;;;;;;;;16.60;90.60;;;;;;5092622;28;19908;-71
2021/09/27 00:08:59;;;;;;;;;;;16.60;91.20;;;;;;5092403;28;19909;-70
2021/09/27 00:11:26;;;;;;;;;;;16.70;91.60;;;;;;5092182;28;19973;-70
2021/09/27 00:13:55;;;;;;;;;;;16.90;90.70;;;;;;5092011;28;19916;-71
2021/09/27 00:16:22;;;;;;;;;;;16.80;90.70;;;;;;5092225;28;19908;-69
2021/09/27 00:18:49;;;;;;;;;;;16.70;91.40;;;;;;5092195;28;19908;-70
2021/09/27 00:21:21;;;;;;;;;;;16.70;90.30;;;;;;5092012;28;19916;-69
2021/09/27 00:23:48;;;;;;;;;;;16.80;91.30;;;;;;5091922;28;19919;-70
2021/09/27 00:26:15;;;;;;;;;;;17.00;91.30;;;;;;5092414;28;19908;-70
2021/09/27 00:28:42;;;;;;;;;;;17.20;90.60;;;;;;5091647;28;20335;-68
2021/09/27 00:31:09;;;;;;;;;;;17.00;90.90;;;;;;5092004;28;19916;-68
2021/09/27 00:33:36;;;;;;;;;;;16.90;90.70;;;;;;5091731;28;20002;-70
2021/09/27 00:36:02;;;;;;;;;;;16.80;90.50;;;;;;5092295;28;19915;-68
2021/09/27 00:38:29;;;;;;;;;;;16.80;91.70;;;;;;5090706;28;19959;-70
2021/09/27 00:41:01;;;;;;;;;;;16.70;91.40;;;;;;5091768;28;19916;-70
2021/09/27 00:43:30;;;;;;;;;;;16.90;92.00;;;;;;5091871;28;19908;-70
2021/09/27 00:45:59;;;;;;;;;;;17.00;91.80;;;;;;5092213;28;20260;-70
2021/09/27 00:48:27;;;;;;;;;;;17.10;92.10;;;;;;5092018;28;19908;-72
2021/09/27 00:50:56;;;;;;;;;;;16.90;92.10;;;;;;5093029;28;19920;-68
2021/09/27 00:53:35;;;;;;;;;;;16.90;92.60;;;;;;5092419;28;19909;-70
2021/09/27 00:56:03;;;;;;;;;;;16.80;93.30;;;;;;5094502;28;19912;-70
2021/09/27 00:58:30;;;;;;;;;;;16.80;93.00;;;;;;5095512;28;19908;-70
2021/09/27 01:00:57;;;;;;;;;;;16.80;93.50;;;;;;5095982;28;19908;-71
2021/09/27 01:03:24;;;;;;;;;;;16.90;93.90;;;;;;5095618;28;20376;-69
2021/09/27 01:06:01;;;;;;;;;;;16.90;94.30;;;;;;5095909;28;20367;-70
2021/09/27 01:08:32;;;;;;;;;;;17.00;93.50;;;;;;5096010;28;19912;-70
2021/09/27 01:11:06;;;;;;;;;;;17.00;93.90;;;;;;5095567;28;19916;-71
2021/09/27 01:13:33;;;;;;;;;;;17.10;94.00;;;;;;5095661;28;19916;-70
2021/09/27 01:15:59;;;;;;;;;;;17.20;93.70;;;;;;5095552;28;19949;-70
2021/09/27 01:18:29;;;;;;;;;;;17.20;95.10;;;;;;5095571;28;20265;-70
2021/09/27 01:21:18;;;;;;;;;;;17.00;95.80;;;;;;5095656;28;20036;-70
2021/09/27 01:23:48;;;;;;;;;;;17.00;96.80;;;;;;5095381;28;19939;-70
2021/09/27 01:26:31;;;;;;;;;;;17.30;96.10;;;;;;5095488;28;20006;-70
2021/09/27 01:29:10;;;;;;;;;;;16.90;96.70;;;;;;5094917;28;19908;-69
2021/09/27 01:31:49;;;;;;;;;;;16.50;97.10;;;;;;5094702;28;19916;-68
2021/09/27 01:34:20;;;;;;;;;;;16.40;97.40;;;;;;5095394;28;19908;-70
2021/09/27 01:36:56;;;;;;;;;;;16.40;97.70;;;;;;5095502;28;20002;-70
2021/09/27 01:39:34;;;;;;;;;;;16.50;97.00;;;;;;5095277;28;19908;-70
2021/09/27 01:42:03;;;;;;;;;;;16.40;96.70;;;;;;5095110;28;19995;-70
2021/09/27 01:44:36;;;;;;;;;;;16.60;96.90;;;;;;5095358;28;19912;-70
2021/09/27 01:47:07;;;;;;;;;;;16.90;96.50;;;;;;5094891;28;19908;-70
2021/09/27 01:49:34;;;;;;;;;;;17.20;95.90;;;;;;5094772;28;20430;-68
2021/09/27 01:52:13;;;;;;;;;;;17.30;96.00;;;;;;5094962;28;19927;-68
2021/09/27 01:54:51;;;;;;;;;;;17.10;95.90;;;;;;5094912;28;19908;-69
2021/09/27 01:57:36;;;;;;;;;;;17.00;96.30;;;;;;5093315;28;19962;-69
2021/09/27 02:00:08;;;;;;;;;;;17.00;96.10;;;;;;5094923;28;19908;-69
2021/09/27 02:02:39;;;;;;;;;;;16.90;96.60;;;;;;5083264;28;19909;-69
2021/09/27 02:05:13;;;;;;;;;;;16.90;96.60;;;;;;5093354;28;19912;-70
2021/09/27 02:07:42;;;;;;;;;;;16.90;96.60;;;;;;5094376;28;19951;-70
2021/09/27 02:10:15;;;;;;;;;;;17.00;97.20;;;;;;5094581;28;19935;-69
2021/09/27 02:12:45;;;;;;;;;;;17.00;97.40;;;;;;5094484;28;19931;-68
2021/09/27 02:15:15;;;;;;;;;;;17.00;97.00;;;;;;5094365;28;19993;-67
2021/09/27 02:17:50;;;;;;;;;;;17.00;97.50;;;;;;5076271;28;19916;-69
2021/09/27 02:20:24;;;;;;;;;;;17.00;97.50;;;;;;5086196;28;19912;-68
2021/09/27 02:23:00;;;;;;;;;;;17.10;97.30;;;;;;5093710;28;19915;-68
2021/09/27 02:25:32;;;;;;;;;;;17.10;97.20;;;;;;5094439;28;19969;-68
2021/09/27 02:28:01;;;;;;;;;;;17.10;97.20;;;;;;5093805;28;19908;-68
2021/09/27 02:30:32;;;;;;;;;;;17.20;97.50;;;;;;5096206;28;19912;-71
2021/09/27 02:33:02;;;;;;;;;;;17.30;96.80;;;;;;5097267;28;19912;-70
2021/09/27 02:35:54;;;;;;;;;;;17.30;95.70;;;;;;5094292;28;19908;-69
2021/09/27 02:38:27;;;;;;;;;;;17.40;95.50;;;;;;5077702;28;19908;-69
2021/09/27 02:40:57;;;;;;;;;;;17.50;95.00;;;;;;5093964;28;19909;-68
2021/09/27 02:43:25;;;;;;;;;;;17.40;95.10;;;;;;5093865;28;19991;-68
2021/09/27 02:45:52;;;;;;;;;;;17.40;95.20;;;;;;5093493;28;19908;-68
2021/09/27 02:48:32;;;;;;;;;;;17.40;95.10;;;;;;5093718;28;19991;-68
2021/09/27 02:50:59;;;;;;;;;;;17.40;94.80;;;;;;5093343;28;20002;-68
2021/09/27 02:53:25;;;;;;;;;;;17.40;95.10;;;;;;5093554;28;19953;-69
2021/09/27 02:56:17;;;;;;;;;;;17.20;96.00;;;;;;5093472;28;19908;-69
2021/09/27 02:59:02;;;;;;;;;;;17.10;94.60;;;;;;5093308;28;19915;-68
2021/09/27 03:01:38;;;;;;;;;;;16.90;95.30;;;;;;5093428;28;19962;-68
2021/09/27 03:04:14;;;;;;;;;;;17.10;95.20;;;;;;5093690;28;19912;-68
2021/09/27 03:06:59;;;;;;;;;;;17.20;95.40;;;;;;5094606;28;20246;-71
2021/09/27 03:09:45;;;;;;;;;;;17.30;94.80;;;;;;5093959;28;20073;-71
2021/09/27 03:12:11;;;;;;;;;;;17.40;94.30;;;;;;5093969;28;19916;-71
2021/09/27 03:14:56;;;;;;;;;;;17.50;94.50;;;;;;5093732;28;19912;-71
2021/09/27 03:17:52;;;;;;;;;;;17.50;94.40;;;;;;5093719;28;19908;-70
2021/09/27 03:20:37;;;;;;;;;;;17.60;94.40;;;;;;5084075;28;20441;-70
2021/09/27 03:23:11;;;;;;;;;;;17.80;93.30;;;;;;5091867;28;19908;-71
2021/09/27 03:25:50;;;;;;;;;;;17.60;93.90;;;;;;5093394;28;19908;-69
2021/09/27 03:28:22;;;;;;;;;;;17.70;93.30;;;;;;5093014;28;19917;-70
2021/09/27 03:30:58;;;;;;;;;;;17.50;93.20;;;;;;5093353;28;19916;-70
2021/09/27 03:33:30;;;;;;;;;;;17.50;92.50;;;;;;5093019;28;20255;-68
2021/09/27 03:36:00;;;;;;;;;;;17.30;91.80;;;;;;5093176;28;19946;-70
2021/09/27 03:38:29;;;;;;;;;;;17.30;93.40;;;;;;5093105;28;20515;-68
2021/09/27 03:40:55;;;;;;;;;;;17.40;93.10;;;;;;5092677;28;19962;-69
2021/09/27 03:43:22;;;;;;;;;;;17.40;93.10;;;;;;5092667;28;19908;-69
2021/09/27 03:46:07;;;;;;;;;;;17.50;93.40;;;;;;5092703;28;19912;-69
2021/09/27 03:48:33;;;;;;;;;;;17.50;93.30;;;;;;5092826;28;19961;-70
2021/09/27 03:51:05;;;;;;;;;;;17.40;93.70;;;;;;5092072;28;20338;-69
2021/09/27 03:53:38;;;;;;;;;;;17.30;93.70;;;;;;5092288;28;20270;-69
2021/09/27 03:56:08;;;;;;;;;;;17.20;92.80;;;;;;5092688;28;19908;-70
2021/09/27 03:58:50;;;;;;;;;;;17.20;93.50;;;;;;5091996;28;20330;-69
2021/09/27 04:01:23;;;;;;;;;;;17.30;93.90;;;;;;5092284;28;19931;-69
2021/09/27 04:03:54;;;;;;;;;;;17.40;94.30;;;;;;5092462;28;20302;-70
2021/09/27 04:06:26;;;;;;;;;;;17.50;94.00;;;;;;5092738;28;19912;-69
2021/09/27 04:08:53;;;;;;;;;;;17.60;93.50;;;;;;5091178;28;19966;-70
2021/09/27 04:11:30;;;;;;;;;;;17.50;94.60;;;;;;5093299;28;19916;-70
2021/09/27 04:14:00;;;;;;;;;;;17.40;94.10;;;;;;5091330;28;19915;-71
2021/09/27 04:16:45;;;;;;;;;;;17.30;94.00;;;;;;5092375;28;20434;-71
2021/09/27 04:19:24;;;;;;;;;;;17.20;93.60;;;;;;5092550;28;19999;-71
2021/09/27 04:21:55;;;;;;;;;;;17.10;94.20;;;;;;5092186;28;19912;-71
2021/09/27 04:24:33;;;;;;;;;;;17.20;94.10;;;;;;5092486;28;19908;-70
2021/09/27 04:27:06;;;;;;;;;;;17.10;94.20;;;;;;5092109;28;19912;-71
2021/09/27 04:29:43;;;;;;;;;;;17.10;93.60;;;;;;5091274;28;19912;-71
2021/09/27 04:32:10;;;;;;;;;;;17.10;94.10;;;;;;5091841;28;19912;-71
2021/09/27 04:34:36;;;;;;;;;;;17.10;94.20;;;;;;5092097;28;19915;-71
2021/09/27 04:37:04;;;;;;;;;;;17.10;94.40;;;;;;5092210;28;19909;-72
2021/09/27 04:39:34;;;;;;;;;;;17.10;94.10;;;;;;5091989;28;19962;-71
2021/09/27 04:42:24;;;;;;;;;;;17.10;94.40;;;;;;5091720;28;20377;-71
2021/09/27 04:45:09;;;;;;;;;;;17.00;94.10;;;;;;5091974;28;19931;-70
2021/09/27 04:47:51;;;;;;;;;;;17.00;93.70;;;;;;5091528;28;19938;-71
2021/09/27 04:50:21;;;;;;;;;;;17.00;93.90;;;;;;5091791;28;19920;-71
2021/09/27 04:53:09;;;;;;;;;;;17.10;95.00;;;;;;5091351;28;19981;-70
2021/09/27 04:55:45;;;;;;;;;;;17.10;95.10;;;;;;5091580;28;19918;-70
2021/09/27 04:58:38;;;;;;;;;;;17.20;95.00;;;;;;5091735;28;20382;-71
2021/09/27 05:01:27;;;;;;;;;;;17.20;94.70;;;;;;5075261;28;19916;-71
2021/09/27 05:04:02;;;;;;;;;;;17.20;93.00;;;;;;5091712;28;20369;-69
2021/09/27 05:06:29;;;;;;;;;;;17.30;93.30;;;;;;5091916;28;20446;-70
2021/09/27 05:09:01;;;;;;;;;;;17.20;93.90;;;;;;5091848;28;20362;-69
2021/09/27 05:11:34;;;;;;;;;;;17.10;93.90;;;;;;5091420;28;20405;-69
2021/09/27 05:14:04;;;;;;;;;;;17.20;93.80;;;;;;5092161;28;20461;-71
2021/09/27 05:16:33;;;;;;;;;;;17.20;93.60;;;;;;5091777;28;19978;-71
2021/09/27 05:19:18;;;;;;;;;;;17.20;93.20;;;;;;5091825;28;19912;-71
2021/09/27 05:22:02;;;;;;;;;;;17.20;93.30;;;;;;5091332;28;19908;-70
2021/09/27 05:24:47;;;;;;;;;;;17.10;93.40;;;;;;5092026;28;20477;-70
2021/09/27 05:27:29;;;;;;;;;;;17.00;93.60;;;;;;5090377;28;19916;-70
2021/09/27 05:29:59;;;;;;;;;;;17.10;94.00;;;;;;5091401;28;19919;-70
2021/09/27 05:32:38;;;;;;;;;;;17.10;94.30;;;;;;5091231;28;19961;-70
2021/09/27 05:35:14;;;;;;;;;;;17.00;94.30;;;;;;5091936;28;19958;-71
2021/09/27 05:37:41;;;;;;;;;;;17.10;94.60;;;;;;5091524;28;19908;-70
2021/09/27 05:40:26;;;;;;;;;;;17.10;94.50;;;;;;5091753;28;19909;-70
2021/09/27 05:43:05;;;;;;;;;;;16.90;94.60;;;;;;5094616;28;19912;-70
2021/09/27 05:46:00;;;;;;;;;;;16.90;94.60;;;;;;5094950;28;19916;-70
2021/09/27 05:48:45;;;;;;;;;;;16.80;94.80;;;;;;5086596;28;19924;-70
2021/09/27 05:51:26;;;;;;;;;;;16.80;95.00;;;;;;5095926;28;19977;-68
2021/09/27 05:54:02;;;;;;;;;;;17.00;94.30;;;;;;5094938;28;19912;-71
2021/09/27 05:56:36;;;;;;;;;;;17.00;94.50;;;;;;5095077;28;19912;-67
2021/09/27 05:59:06;;;;;;;;;;;17.10;94.50;;;;;;5094590;28;19915;-68
2021/09/27 06:01:50;;;;;;;;;;;17.10;94.20;;;;;;5094106;28;20002;-67
2021/09/27 06:04:25;;;;;;;;;;;17.00;94.40;;;;;;5095063;28;19950;-70
2021/09/27 06:06:56;;;;;;;;;;;16.90;95.00;;;;;;5093537;28;19909;-71
2021/09/27 06:09:41;;;;;;;;;;;16.90;95.00;;;;;;5094711;28;19953;-71
2021/09/27 06:12:18;;;;;;;;;;;16.90;94.90;;;;;;5094452;28;19916;-71
2021/09/27 06:14:45;;;;;;;;;;;16.80;94.60;;;;;;5094844;28;20380;-71
2021/09/27 06:17:23;;;;;;;;;;;16.70;94.90;;;;;;5079958;28;20266;-71
2021/09/27 06:20:01;;;;;;;;;;;16.70;95.30;;;;;;5074136;28;19908;-70
2021/09/27 06:22:36;;;;;;;;;;;16.60;95.30;;;;;;5106549;28;19987;-70
2021/09/27 06:25:18;;;;;;;;;;;16.50;95.30;;;;;;5073645;28;20050;-71
2021/09/27 06:28:02;;;;;;;;;;;16.50;95.10;;;;;;5073031;28;20039;-71
2021/09/27 06:30:35;;;;;;;;;;;16.40;95.50;;;;;;5073757;28;19942;-70
2021/09/27 06:33:23;;;;;;;;;;;16.40;95.30;;;;;;5073995;28;19915;-70
2021/09/27 06:35:52;;;;;;;;;;;16.30;95.70;;;;;;5073654;28;20003;-71
2021/09/27 06:38:25;;;;;;;;;;;16.30;95.70;;;;;;5074113;28;19916;-69
2021/09/27 06:40:52;;;;;;;;;;;16.30;95.90;;;;;;5073605;28;19915;-70
2021/09/27 06:43:20;;;;;;;;;;;16.30;96.00;;;;;;5073703;28;20375;-71
2021/09/27 06:45:47;;;;;;;;;;;16.40;96.30;;;;;;5073377;28;19908;-70
2021/09/27 06:48:14;;;;;;;;;;;16.30;95.60;;;;;;5073669;28;19923;-69
2021/09/27 06:50:41;;;;;;;;;;;16.30;95.70;;;;;;5073085;28;19927;-69
2021/09/27 06:53:08;;;;;;;;;;;16.20;96.00;;;;;;5070050;28;20078;-69
2021/09/27 06:55:34;;;;;;;;;;;16.20;96.10;;;;;;5071404;28;19943;-70
2021/09/27 06:58:01;;;;;;;;;;;16.10;96.20;;;;;;5070937;28;19916;-69
2021/09/27 07:00:28;;;;;;;;;;;16.20;96.40;;;;;;5071264;28;20545;-70
2021/09/27 07:02:54;;;;;;;;;;;16.10;96.40;;;;;;5071146;28;19913;-70
2021/09/27 07:05:21;;;;;;;;;;;16.10;96.60;;;;;;5071002;28;19916;-70
2021/09/27 07:07:48;;;;;;;;;;;16.10;96.40;;;;;;5071408;28;19909;-70
2021/09/27 07:10:16;;;;;;;;;;;16.00;96.60;;;;;;5071239;28;20286;-68
2021/09/27 07:12:43;;;;;;;;;;;15.90;96.80;;;;;;5070704;28;20248;-69
2021/09/27 07:15:10;;;;;;;;;;;15.90;96.90;;;;;;5071112;28;20003;-70
2021/09/27 07:17:38;;;;;;;;;;;15.90;97.00;;;;;;5070744;28;19998;-70
2021/09/27 07:20:09;;;;;;;;;;;15.80;97.00;;;;;;5070995;28;19916;-69
2021/09/27 07:22:35;;;;;;;;;;;15.80;97.10;;;;;;5070685;28;19912;-70
2021/09/27 07:25:03;;;;;;;;;;;15.80;97.30;;;;;;5070820;28;19920;-70
2021/09/27 07:27:30;;;;;;;;;;;15.70;97.50;;;;;;5070737;28;19970;-71
2021/09/27 07:29:57;;;;;;;;;;;15.70;97.50;;;;;;5070706;28;19920;-68
2021/09/27 07:32:23;;;;;;;;;;;15.70;97.80;;;;;;5070348;28;19916;-70
2021/09/27 07:34:50;;;;;;;;;;;15.70;97.70;;;;;;5070800;28;19939;-70
2021/09/27 07:37:16;;;;;;;;;;;15.70;97.90;;;;;;5070772;28;20241;-70
2021/09/27 07:39:43;;;;;;;;;;;15.60;98.10;;;;;;5070278;28;20425;-69
2021/09/27 07:42:10;;;;;;;;;;;15.60;98.00;;;;;;5076746;28;19999;-68
2021/09/27 07:44:37;;;;;;;;;;;15.60;98.30;;;;;;5090416;28;19914;-68
2021/09/27 07:47:04;;;;;;;;;;;15.60;98.40;;;;;;5090777;28;19915;-69
2021/09/27 07:49:31;;;;;;;;;;;15.50;98.50;;;;;;5090445;28;19944;-72
2021/09/27 07:51:58;;;;;;;;;;;15.50;98.60;;;;;;5090089;28;19924;-70
2021/09/27 07:54:25;;;;;;;;;;;15.50;99.00;;;;;;5090696;28;19908;-71
2021/09/27 07:56:55;;;;;;;;;;;15.50;99.30;;;;;;5089591;28;20227;-67
2021/09/27 07:59:21;;;;;;;;;;;15.40;99.40;;;;;;5090269;28;19951;-69
2021/09/27 08:01:48;;;;;;;;;;;15.40;99.70;;;;;;5089948;28;19916;-68
2021/09/27 08:04:16;;;;;;;;;;;15.30;99.90;;;;;;5090282;28;19912;-68
2021/09/27 08:06:43;;;;;;;;;;;15.40;99.90;;;;;;5090350;28;19912;-69
2021/09/27 08:09:10;;;;;;;;;;;15.40;99.90;;;;;;5090193;28;20451;-67
2021/09/27 08:11:40;;;;;;;;;;;15.30;99.90;;;;;;5089579;28;19951;-69
2021/09/27 08:14:07;;;;;;;;;;;15.30;99.90;;;;;;5090302;28;20256;-70
2021/09/27 08:16:34;;;;;;;;;;;15.30;99.90;;;;;;5090099;28;19912;-67
2021/09/27 08:19:00;;;;;;;;;;;15.30;99.90;;;;;;5090241;28;20414;-68
2021/09/27 08:21:27;;;;;;;;;;;15.30;99.90;;;;;;5090167;28;19934;-69
2021/09/27 08:23:54;;;;;;;;;;;15.30;99.90;;;;;;5090138;28;20335;-68
2021/09/27 08:26:21;;;;;;;;;;;15.30;99.90;;;;;;5090297;28;20274;-68
2021/09/27 08:28:48;;;;;;;;;;;15.30;99.90;;;;;;5089665;28;20313;-68
2021/09/27 08:31:19;;;;;;;;;;;15.30;99.90;;;;;;5088484;28;19954;-69
2021/09/27 08:33:47;;;;;;;;;;;15.30;99.90;;;;;;5090093;28;19908;-68
2021/09/27 08:36:15;;;;;;;;;;;15.20;99.90;;;;;;5089926;28;19912;-68
2021/09/27 08:38:43;;;;;;;;;;;15.20;99.90;;;;;;5090007;28;19915;-68
2021/09/27 08:41:28;;;;;;;;;;;15.20;99.90;;;;;;5090013;28;19940;-67
2021/09/27 08:44:04;;;;;;;;;;;15.20;99.90;;;;;;5089925;28;19999;-69
2021/09/27 08:46:33;;;;;;;;;;;15.20;99.90;;;;;;5089819;28;20329;-68
2021/09/27 08:49:00;;;;;;;;;;;15.20;99.90;;;;;;5089834;28;19932;-68
2021/09/27 08:51:27;;;;;;;;;;;15.20;99.90;;;;;;5089735;28;20332;-68
2021/09/27 08:53:54;;;;;;;;;;;15.20;99.90;;;;;;5089992;28;19995;-68
2021/09/27 08:56:33;;;;;;;;;;;15.20;99.90;;;;;;5089993;28;19959;-68
2021/09/27 08:59:03;;;;;;;;;;;15.10;99.90;;;;;;5089618;28;20279;-68
2021/09/27 09:01:36;;;;;;;;;;;15.10;99.90;;;;;;5089466;28;20327;-70
2021/09/27 09:04:08;;;;;;;;;;;15.10;99.90;;;;;;5089884;28;19908;-71
2021/09/27 09:06:51;;;;;;;;;;;15.10;99.90;;;;;;5091545;28;19943;-70
2021/09/27 09:09:20;;;;;;;;;;;15.10;99.90;;;;;;5092268;28;19987;-70
2021/09/27 09:11:59;;;;;;;;;;;15.10;99.90;;;;;;5090586;28;19916;-70
2021/09/27 09:14:45;;;;;;;;;;;15.10;99.90;;;;;;5091633;28;19908;-70
2021/09/27 09:17:17;;;;;;;;;;;15.10;99.90;;;;;;5094160;28;19961;-71
2021/09/27 09:19:44;;;;;;;;;;;15.10;99.90;;;;;;5095448;28;19908;-70
2021/09/27 09:22:19;;;;;;;;;;;15.10;99.90;;;;;;5095270;28;20355;-69
2021/09/27 09:24:46;;;;;;;;;;;15.10;99.90;;;;;;5095464;28;19934;-71
2021/09/27 09:27:14;;;;;;;;;;;15.10;99.90;;;;;;5095357;28;19914;-70
2021/09/27 09:29:42;;;;;;;;;;;15.10;99.90;;;;;;5095116;28;19912;-71
2021/09/27 09:32:12;;;;;;;;;;;15.10;99.90;;;;;;5094961;28;19916;-71
2021/09/27 09:34:39;;;;;;;;;;;15.10;99.90;;;;;;5095386;28;19908;-69
2021/09/27 09:37:09;;;;;;;;;;;15.10;99.90;;;;;;5095273;28;19912;-69
2021/09/27 09:39:40;;;;;;;;;;;15.10;99.90;;;;;;5093844;28;19952;-70
2021/09/27 09:42:23;;;;;;;;;;;15.10;99.90;;;;;;5094888;28;19915;-68
2021/09/27 09:44:50;;;;;;;;;;;15.10;99.90;;;;;;5094923;28;20409;-69
2021/09/27 09:47:22;;;;;;;;;;;15.00;99.90;;;;;;5094973;28;19908;-70
2021/09/27 09:50:10;;;;;;;;;;;15.10;99.90;;;;;;5094759;28;19991;-72
2021/09/27 09:52:37;;;;;;;;;;;15.10;99.90;;;;;;5094690;28;19953;-72
2021/09/27 09:55:16;;;;;;;;;;;15.00;99.90;;;;;;5095089;28;19908;-71
2021/09/27 09:57:56;;;;;;;;;;;15.00;99.90;;;;;;5094794;28;19915;-71
2021/09/27 10:00:42;;;;;;;;;;;15.00;99.90;;;;;;5095149;28;19908;-71
2021/09/27 10:03:10;;;;;;;;;;;15.00;99.90;;;;;;5094813;28;20409;-71
2021/09/27 10:05:57;;;;;;;;;;;15.00;99.90;;;;;;5095128;28;19912;-70
2021/09/27 10:08:26;;;;;;;;;;;15.00;99.90;;;;;;5087811;28;20264;-68
2021/09/27 10:11:00;;;;;;;;;;;15.10;99.90;;;;;;5095088;28;20007;-68
2021/09/27 10:13:44;;;;;;;;;;;15.10;99.90;;;;;;5094911;28;19919;-70
2021/09/27 10:16:32;;;;;;;;;;;15.10;99.90;;;;;;5086250;28;19913;-68
2021/09/27 10:19:23;;;;;;;;;;;15.10;99.90;;;;;;5106957;28;19954;-68
2021/09/27 10:21:55;;;;;;;;;;;15.10;99.90;;;;;;5070912;28;19951;-69
2021/09/27 10:24:29;;;;;;;;;;;15.10;99.90;;;;;;5074287;28;19908;-70
2021/09/27 10:26:57;;;;;;;;;;;15.10;99.90;;;;;;5073773;28;20316;-70
2021/09/27 10:29:26;;;;;;;;;;;15.10;99.90;;;;;;5072710;28;19974;-70
2021/09/27 10:32:01;;;;;;;;;;;15.10;99.90;;;;;;5073518;28;19922;-69
2021/09/27 10:34:30;;;;;;;;;;;15.10;99.90;;;;;;5073880;28;19979;-69
2021/09/27 10:37:01;;;;;;;;;;;15.10;99.90;;;;;;5073783;28;20381;-69
2021/09/27 10:39:30;;;;;;;;;;;15.10;99.90;;;;;;5072611;28;19952;-69
2021/09/27 10:42:00;;;;;;;;;;;15.20;99.90;;;;;;5073089;28;20354;-68
2021/09/27 10:44:34;;;;;;;;;;;15.20;99.90;;;;;;5073789;28;19908;-67
2021/09/27 10:47:26;;;;;;;;;;;15.20;99.90;;;;;;5073754;28;20270;-71
2021/09/27 10:49:53;;;;;;;;;;;15.10;99.90;;;;;;5072027;28;19948;-69
2021/09/27 10:52:21;;;;;;;;;;;15.10;99.90;;;;;;5105831;28;19913;-68
2021/09/27 10:54:59;;;;;;;;;;;15.10;99.90;;;;;;5073706;28;20256;-71
2021/09/27 10:57:33;;;;;;;;;;;15.10;99.90;;;;;;5105140;28;20256;-71
2021/09/27 11:00:04;;;;;;;;;;;15.10;99.90;;;;;;5073372;28;19991;-69
2021/09/27 11:02:42;;;;;;;;;;;15.20;99.90;;;;;;5072906;28;19908;-72
2021/09/27 11:05:15;;;;;;;;;;;15.10;99.90;;;;;;5073509;28;19913;-72
2021/09/27 11:07:47;;;;;;;;;;;15.10;99.90;;;;;;5073085;28;19908;-70
2021/09/27 11:10:22;;;;;;;;;;;15.10;99.90;;;;;;5073068;28;19917;-71
2021/09/27 11:12:50;;;;;;;;;;;15.20;99.90;;;;;;5072515;28;19909;-71
2021/09/27 11:15:25;;;;;;;;;;;15.20;99.90;;;;;;5073161;28;19909;-72
2021/09/27 11:18:07;;;;;;;;;;;15.20;99.90;;;;;;5072965;28;19908;-71
2021/09/27 11:20:49;;;;;;;;;;;15.20;99.90;;;;;;5072913;28;20267;-71
2021/09/27 11:23:27;;;;;;;;;;;15.20;99.90;;;;;;5072757;28;19916;-71
2021/09/27 11:26:12;;;;;;;;;;;15.20;99.90;;;;;;5073118;28;19930;-70
2021/09/27 11:28:52;;;;;;;;;;;15.30;99.90;;;;;;5072399;28;19909;-71
2021/09/27 11:31:31;;;;;;;;;;;15.30;99.90;;;;;;5073271;28;19966;-71
2021/09/27 11:34:00;;;;;;;;;;;15.30;99.90;;;;;;5073199;28;19943;-71
2021/09/27 11:36:26;;;;;;;;;;;15.30;99.90;;;;;;5072915;28;19908;-70
2021/09/27 11:39:05;;;;;;;;;;;15.30;99.90;;;;;;5071917;28;19944;-70
2021/09/27 11:41:33;;;;;;;;;;;15.30;99.90;;;;;;5072400;28;20261;-70
2021/09/27 11:44:05;;;;;;;;;;;15.30;99.90;;;;;;5071431;28;20373;-70
2021/09/27 11:46:40;;;;;;;;;;;15.20;99.90;;;;;;5072733;28;20390;-71
2021/09/27 11:52:12;;;;;;;;;;;15.20;99.90;;;;;;5072478;28;20367;-70
2021/09/27 11:54:38;;;;;;;;;;;15.20;99.90;;;;;;5072578;28;19909;-70
2021/09/27 11:57:08;;;;;;;;;;;15.20;99.90;;;;;;5072172;28;19908;-70
2021/09/27 11:59:50;;;;;;;;;;;15.20;99.90;;;;;;5072149;28;19952;-70
2021/09/27 12:02:17;;;;;;;;;;;15.20;99.90;;;;;;5072638;28;19916;-69
2021/09/27 12:04:49;;;;;;;;;;;15.20;99.90;;;;;;5105244;28;19908;-69
2021/09/27 12:07:17;;;;;;;;;;;15.20;99.90;;;;;;5072695;28;19944;-71
2021/09/27 12:09:48;;;;;;;;;;;15.20;99.90;;;;;;5072632;28;19916;-70
2021/09/27 12:12:22;;;;;;;;;;;15.30;99.90;;;;;;5071795;28;19916;-70
2021/09/27 12:14:49;;;;;;;;;;;15.30;99.90;;;;;;5072401;28;19909;-71
2021/09/27 12:17:18;;;;;;;;;;;15.30;99.90;;;;;;5072264;28;19996;-70
2021/09/27 12:19:49;;;;;;;;;;;15.30;99.90;;;;;;5072132;28;19915;-70
2021/09/27 12:22:23;;;;;;;;;;;15.30;99.90;;;;;;5072328;28;19995;-70
2021/09/27 12:24:51;;;;;;;;;;;15.30;99.90;;;;;;5072653;28;19908;-70
2021/09/27 12:27:28;;;;;;;;;;;15.40;99.90;;;;;;5071780;28;20278;-70
2021/09/27 12:30:05;;;;;;;;;;;15.40;99.90;;;;;;5071778;28;19908;-70
2021/09/27 12:32:38;;;;;;;;;;;15.50;99.90;;;;;;5072425;28;19909;-70
2021/09/27 12:35:07;;;;;;;;;;;15.40;99.90;;;;;;5072275;28;19944;-70
2021/09/27 12:37:35;;;;;;;;;;;15.40;99.90;;;;;;5072221;28;20365;-70
2021/09/27 12:40:03;;;;;;;;;;;15.30;99.90;;;;;;5072380;28;20235;-71
2021/09/27 12:42:36;;;;;;;;;;;15.30;99.90;;;;;;5072017;28;19909;-71
2021/09/27 12:45:21;;;;;;;;;;;15.20;99.90;;;;;;5072106;28;19909;-71
2021/09/27 12:47:48;;;;;;;;;;;15.20;99.90;;;;;;5071922;28;19956;-71
2021/09/27 12:50:20;;;;;;;;;;;15.10;99.90;;;;;;5071759;28;19925;-71
2021/09/27 12:52:50;;;;;;;;;;;15.10;99.90;;;;;;5075677;28;19908;-71
2021/09/27 12:55:20;;;;;;;;;;;15.10;99.90;;;;;;5076126;28;19909;-71
2021/09/27 12:57:50;;;;;;;;;;;15.00;99.90;;;;;;5075415;28;20000;-71
2021/09/27 13:00:23;;;;;;;;;;;15.00;99.90;;;;;;5075753;28;19999;-71
2021/09/27 13:02:50;;;;;;;;;;;15.00;99.90;;;;;;5075961;28;20355;-71
2021/09/27 13:05:25;;;;;;;;;;;15.00;99.90;;;;;;5075893;28;19908;-71
2021/09/27 13:07:53;;;;;;;;;;;15.00;99.90;;;;;;5075744;28;19908;-70
2021/09/27 13:10:22;;;;;;;;;;;14.90;99.90;;;;;;5075321;28;19917;-71
2021/09/27 13:13:04;;;;;;;;;;;14.90;99.90;;;;;;5075667;28;19969;-71
2021/09/27 13:15:33;;;;;;;;;;;14.90;99.90;;;;;;5075654;28;19912;-71
2021/09/27 13:18:26;;;;;;;;;;;14.80;99.90;;;;;;5075745;28;20276;-71
2021/09/27 13:21:02;;;;;;;;;;;14.80;99.90;;;;;;5074311;28;20382;-71
2021/09/27 13:23:41;;;;;;;;;;;14.80;99.90;;;;;;5075309;28;19909;-71
2021/09/27 13:26:30;;;;;;;;;;;14.80;99.90;;;;;;5075852;28;20383;-71
2021/09/27 13:29:01;;;;;;;;;;;14.70;99.90;;;;;;5075712;28;19908;-69
2021/09/27 13:31:33;;;;;;;;;;;14.70;99.90;;;;;;5075242;28;20002;-71
2021/09/27 13:34:02;;;;;;;;;;;14.70;99.90;;;;;;5075415;28;19915;-71
2021/09/27 13:36:35;;;;;;;;;;;14.70;99.90;;;;;;5075423;28;19916;-71
2021/09/27 13:39:08;;;;;;;;;;;14.70;99.90;;;;;;5075136;28;19916;-71
2021/09/27 13:41:56;;;;;;;;;;;14.70;99.90;;;;;;5075151;28;19913;-71
2021/09/27 13:44:40;;;;;;;;;;;14.60;99.90;;;;;;5075183;28;19916;-72
2021/09/27 13:47:08;;;;;;;;;;;14.60;99.90;;;;;;5075242;28;19912;-71
2021/09/27 13:49:35;;;;;;;;;;;14.60;99.90;;;;;;5074967;28;20034;-71
2021/09/27 13:52:02;;;;;;;;;;;14.60;99.90;;;;;;5074973;28;19921;-71
2021/09/27 13:54:29;;;;;;;;;;;14.50;99.90;;;;;;5074936;28;19916;-69
2021/09/27 13:56:56;;;;;;;;;;;14.50;99.90;;;;;;5075201;28;19916;-69
2021/09/27 13:59:22;;;;;;;;;;;14.40;99.90;;;;;;5074880;28;19985;-68
2021/09/27 14:01:49;;;;;;;;;;;14.40;99.90;;;;;;5074660;28;19909;-69
2021/09/27 14:04:16;;;;;;;;;;;14.30;99.90;;;;;;5075979;28;19996;-71
2021/09/27 14:06:43;;;;;;;;;;;14.20;99.90;;;;;;5075147;28;19942;-71
2021/09/27 14:09:09;;;;;;;;;;;14.20;99.90;;;;;;5074926;28;19915;-70
2021/09/27 14:11:36;;;;;;;;;;;14.20;99.90;;;;;;5074714;28;20011;-72
2021/09/27 14:14:04;;;;;;;;;;;14.10;99.90;;;;;;5074596;28;19970;-72
2021/09/27 14:16:31;;;;;;;;;;;14.00;99.90;;;;;;5074820;28;20007;-71
2021/09/27 14:18:58;;;;;;;;;;;13.90;99.90;;;;;;5074732;28;19908;-71
2021/09/27 14:21:26;;;;;;;;;;;13.90;99.90;;;;;;5074491;28;19916;-71
2021/09/27 14:23:54;;;;;;;;;;;13.90;99.90;;;;;;5073140;28;20288;-71
2021/09/27 14:26:22;;;;;;;;;;;13.90;99.90;;;;;;5074591;28;19908;-72
2021/09/27 14:28:50;;;;;;;;;;;14.00;99.90;;;;;;5074481;28;20017;-72
2021/09/27 14:31:17;;;;;;;;;;;14.00;99.90;;;;;;5074433;28;19985;-70
2021/09/27 14:33:43;;;;;;;;;;;14.00;99.90;;;;;;5074221;28;19961;-72
2021/09/27 14:36:10;;;;;;;;;;;14.00;99.90;;;;;;5074418;28;19912;-71
2021/09/27 14:38:38;;;;;;;;;;;13.90;99.90;;;;;;5074383;28;19909;-72
2021/09/27 14:41:05;;;;;;;;;;;13.90;99.90;;;;;;5074203;28;19954;-72
2021/09/27 14:43:31;;;;;;;;;;;13.80;99.90;;;;;;5073656;28;19909;-71
2021/09/27 14:45:58;;;;;;;;;;;13.70;99.90;;;;;;5074088;28;20260;-71
2021/09/27 14:48:26;;;;;;;;;;;13.70;99.90;;;;;;5074308;28;19915;-72
2021/09/27 14:50:53;;;;;;;;;;;13.70;99.90;;;;;;5073773;28;20290;-72